Time;durP1;ratioP1;P1;durP2;ratioP2;P2;SDS_P1;SDS_P2;PMS_P1;PMS_P2;Temp;Humidity;BMP_temperature;BMP_pressure;BME280_temperature;BME280_humidity;BME280_pressure;Samples;Min_cycle;Max_cycle;Signal;HPM_P1;HPM_P2
2022/04/21 00:01:14;;;;;;;5.80;5.30;;;9.10;91.60;;;;;;6005060;23;20248;-83
2022/04/21 00:03:41;;;;;;;5.40;4.90;;;9.10;91.60;;;;;;6002169;23;20200;-82
2022/04/21 00:06:08;;;;;;;5.03;4.63;;;9.00;91.90;;;;;;6000520;23;20314;-82
2022/04/21 00:08:35;;;;;;;5.80;5.20;;;9.00;92.20;;;;;;6004050;23;20216;-83
2022/04/21 00:11:03;;;;;;;5.18;4.78;;;9.00;92.50;;;;;;6003296;23;20228;-82
2022/04/21 00:13:33;;;;;;;5.65;5.15;;;9.00;92.80;;;;;;6005284;23;20194;-82
2022/04/21 00:16:01;;;;;;;5.35;4.85;;;8.90;93.10;;;;;;6002960;23;20666;-83
2022/04/21 00:18:28;;;;;;;5.10;4.70;;;8.90;93.50;;;;;;6005263;23;20632;-82
2022/04/21 00:20:57;;;;;;;5.15;4.70;;;8.90;93.70;;;;;;6002803;23;20227;-82
2022/04/21 00:23:26;;;;;;;5.28;4.88;;;8.90;93.70;;;;;;6005336;23;20200;-82
2022/04/21 00:25:53;;;;;;;5.25;4.85;;;8.90;94.30;;;;;;6002715;23;20306;-82
2022/04/21 00:28:22;;;;;;;6.00;5.50;;;8.90;94.70;;;;;;6005207;23;20639;-82
2022/04/21 00:30:49;;;;;;;4.80;4.50;;;8.80;94.90;;;;;;6003643;23;20287;-83
2022/04/21 00:33:17;;;;;;;5.20;4.70;;;8.80;95.10;;;;;;5999120;23;20194;-82
2022/04/21 00:35:44;;;;;;;5.15;4.68;;;8.80;95.20;;;;;;5989320;23;20220;-83
2022/04/21 00:38:11;;;;;;;5.50;5.10;;;8.80;95.40;;;;;;6005527;23;20273;-82
2022/04/21 00:40:39;;;;;;;5.60;5.10;;;8.80;95.80;;;;;;6003080;23;20291;-83
2022/04/21 00:43:06;;;;;;;4.85;4.55;;;8.80;95.80;;;;;;6004412;23;20187;-82
2022/04/21 00:45:35;;;;;;;5.22;4.80;;;8.70;96.20;;;;;;6002000;23;20306;-82
2022/04/21 00:48:05;;;;;;;5.90;5.40;;;8.70;96.40;;;;;;5997550;23;20188;-82
2022/04/21 00:50:35;;;;;;;6.15;5.63;;;8.70;96.60;;;;;;6003830;23;20289;-82
2022/04/21 00:53:03;;;;;;;5.70;5.25;;;8.70;96.90;;;;;;6004800;23;20264;-82
2022/04/21 00:55:32;;;;;;;6.68;5.75;;;8.60;97.00;;;;;;6004352;23;20200;-81
2022/04/21 00:58:01;;;;;;;6.35;5.72;;;8.60;97.30;;;;;;6004879;23;20767;-82
2022/04/21 01:00:28;;;;;;;5.70;5.30;;;8.60;97.60;;;;;;6012599;23;20237;-83
2022/04/21 01:02:56;;;;;;;7.07;5.50;;;8.60;97.80;;;;;;6029647;23;20241;-83
2022/04/21 01:05:30;;;;;;;6.05;5.55;;;8.60;98.30;;;;;;6025036;23;20249;-82
2022/04/21 01:07:58;;;;;;;5.85;5.35;;;8.60;98.40;;;;;;6028022;23;20196;-83
2022/04/21 01:10:26;;;;;;;5.80;5.30;;;8.50;98.60;;;;;;6026016;23;20218;-83
2022/04/21 01:12:54;;;;;;;6.50;5.95;;;8.50;99.00;;;;;;6024802;23;20188;-82
2022/04/21 01:15:21;;;;;;;5.95;5.45;;;8.50;99.40;;;;;;6003303;23;20200;-82
2022/04/21 01:17:48;;;;;;;6.38;5.97;;;8.50;99.70;;;;;;6003902;23;20315;-82
2022/04/21 01:20:17;;;;;;;7.18;6.20;;;8.50;99.90;;;;;;6002786;23;20245;-82
2022/04/21 01:22:44;;;;;;;7.50;6.90;;;8.50;99.90;;;;;;6003597;23;20187;-82
2022/04/21 01:25:11;;;;;;;8.63;6.18;;;8.40;99.90;;;;;;6004141;23;20301;-82
2022/04/21 01:27:39;;;;;;;6.82;6.00;;;8.40;99.90;;;;;;6001935;23;20280;-82
2022/04/21 01:30:08;;;;;;;6.57;6.03;;;8.40;99.90;;;;;;5990413;23;20290;-82
2022/04/21 01:32:37;;;;;;;6.50;6.00;;;8.40;99.90;;;;;;6003332;23;20190;-82
2022/04/21 01:35:08;;;;;;;6.45;5.93;;;8.30;99.90;;;;;;6000382;23;20199;-81
2022/04/21 01:43:07;;;;;;;6.95;6.35;;;8.30;99.90;;;;;;5996191;23;20206;-82
2022/04/21 01:45:34;;;;;;;6.05;5.60;;;8.30;99.90;;;;;;6004675;23;20217;-82
2022/04/21 01:48:02;;;;;;;6.50;6.00;;;8.30;99.90;;;;;;6001973;23;20534;-82
2022/04/21 01:50:29;;;;;;;7.55;6.85;;;8.30;99.90;;;;;;6002308;23;20259;-82
2022/04/21 01:52:58;;;;;;;6.50;6.00;;;8.20;99.90;;;;;;6000678;23;20225;-82
2022/04/21 01:55:25;;;;;;;7.35;6.75;;;8.20;99.90;;;;;;6003963;23;20723;-82
2022/04/21 01:57:52;;;;;;;7.20;6.50;;;8.20;99.90;;;;;;6004184;23;20642;-81
2022/04/21 02:00:19;;;;;;;7.10;6.40;;;8.20;99.90;;;;;;6003108;23;20701;-82
2022/04/21 02:02:45;;;;;;;7.85;6.55;;;8.20;99.90;;;;;;6003498;23;20198;-82
2022/04/21 02:05:13;;;;;;;7.75;6.60;;;8.30;99.90;;;;;;6003743;23;20229;-82
2022/04/21 02:07:44;;;;;;;8.18;7.38;;;8.20;99.90;;;;;;6003818;23;20281;-81
2022/04/21 02:10:12;;;;;;;7.95;7.15;;;8.20;99.90;;;;;;5976777;23;20677;-82
2022/04/21 02:12:40;;;;;;;7.60;7.00;;;8.20;99.90;;;;;;6002294;23;20538;-82
2022/04/21 02:15:08;;;;;;;8.40;7.70;;;8.20;99.90;;;;;;6002847;23;20704;-82
2022/04/21 02:17:36;;;;;;;8.20;7.50;;;8.20;99.90;;;;;;6003219;23;20199;-82
2022/04/21 02:20:06;;;;;;;8.00;7.30;;;8.20;99.90;;;;;;5995241;23;20233;-82
2022/04/21 02:22:34;;;;;;;7.32;6.80;;;8.20;99.90;;;;;;6002144;23;20257;-82
2022/04/21 02:25:02;;;;;;;8.55;7.80;;;8.10;99.90;;;;;;6003600;23;20193;-81
2022/04/21 02:27:31;;;;;;;8.55;7.63;;;8.10;99.90;;;;;;6003876;23;20194;-81
2022/04/21 02:29:58;;;;;;;10.02;8.82;;;8.10;99.90;;;;;;6003790;23;20297;-82
2022/04/21 02:32:24;;;;;;;9.60;8.80;;;8.10;99.90;;;;;;6001121;23;20202;-82
2022/04/21 02:34:53;;;;;;;8.82;8.23;;;8.10;99.90;;;;;;5992822;23;20186;-82
2022/04/21 02:37:21;;;;;;;9.48;8.60;;;8.10;99.90;;;;;;6002771;23;20198;-81
2022/04/21 02:39:47;;;;;;;9.25;8.45;;;8.10;99.90;;;;;;6003314;23;20214;-82
2022/04/21 02:42:14;;;;;;;10.07;9.32;;;8.00;99.90;;;;;;6002732;23;20277;-82
2022/04/21 02:44:43;;;;;;;9.13;8.40;;;8.00;99.90;;;;;;6003064;23;20221;-82
2022/04/21 02:47:10;;;;;;;9.52;8.80;;;8.00;99.90;;;;;;6002719;23;20983;-82
2022/04/21 02:49:38;;;;;;;10.95;10.05;;;8.00;99.90;;;;;;6004170;23;20211;-82
2022/04/21 02:52:07;;;;;;;11.02;10.13;;;8.00;99.90;;;;;;6002072;23;20537;-82
2022/04/21 02:57:21;;;;;;;10.45;9.65;;;7.90;99.90;;;;;;5990718;23;20183;-82
2022/04/21 02:59:51;;;;;;;11.15;10.25;;;7.80;99.90;;;;;;5997202;23;20221;-82
2022/04/21 03:02:18;;;;;;;11.57;10.57;;;7.80;99.90;;;;;;6003128;23;20261;-82
2022/04/21 03:04:45;;;;;;;10.80;9.90;;;7.80;99.90;;;;;;6003459;23;20285;-82
2022/04/21 03:07:14;;;;;;;10.82;10.02;;;7.80;99.90;;;;;;6005482;23;20241;-82
2022/04/21 03:09:41;;;;;;;11.75;10.85;;;7.80;99.90;;;;;;6001414;23;20247;-82
2022/04/21 03:12:09;;;;;;;11.32;10.45;;;7.80;99.90;;;;;;6003374;23;20206;-82
2022/04/21 03:14:37;;;;;;;11.57;10.68;;;7.80;99.90;;;;;;6003402;23;20598;-82
2022/04/21 03:17:06;;;;;;;12.05;11.05;;;7.70;99.90;;;;;;6005541;23;20230;-82
2022/04/21 03:19:34;;;;;;;12.50;11.40;;;7.70;99.90;;;;;;5990865;23;20230;-82
2022/04/21 03:24:46;;;;;;;13.25;11.95;;;7.60;99.90;;;;;;5995778;23;20240;-82
2022/04/21 03:27:14;;;;;;;13.32;12.23;;;7.60;99.90;;;;;;6003859;23;20700;-82
2022/04/21 03:29:42;;;;;;;12.20;11.18;;;7.60;99.90;;;;;;6002326;23;20241;-81
2022/04/21 03:32:13;;;;;;;12.50;11.52;;;7.60;99.90;;;;;;6004928;23;20305;-81
2022/04/21 03:34:44;;;;;;;11.98;11.07;;;7.60;99.90;;;;;;5994021;23;20202;-81
2022/04/21 03:37:13;;;;;;;12.18;11.13;;;7.60;99.90;;;;;;6005679;23;20225;-81
2022/04/21 03:39:41;;;;;;;11.50;10.57;;;7.60;99.90;;;;;;6002914;23;20268;-82
2022/04/21 03:42:19;;;;;;;11.55;10.65;;;7.60;99.90;;;;;;6004523;23;20273;-81
2022/04/21 03:44:46;;;;;;;12.02;11.02;;;7.60;99.90;;;;;;6004291;23;20316;-82
2022/04/21 03:47:15;;;;;;;12.07;10.88;;;7.60;99.90;;;;;;6004991;23;20218;-82
2022/04/21 03:49:42;;;;;;;12.30;11.30;;;7.60;99.90;;;;;;6002707;23;20220;-82
2022/04/21 03:52:10;;;;;;;12.43;11.43;;;7.60;99.90;;;;;;6000797;23;20227;-81
2022/04/21 03:54:37;;;;;;;12.02;10.98;;;7.60;99.90;;;;;;5999106;23;20190;-81
2022/04/21 03:57:04;;;;;;;12.45;11.35;;;7.60;99.90;;;;;;6002211;23;20745;-81
2022/04/21 03:59:31;;;;;;;12.35;11.35;;;7.50;99.90;;;;;;6003106;23;20709;-81
2022/04/21 04:02:02;;;;;;;12.68;11.77;;;7.50;99.90;;;;;;6004787;23;20668;-82
2022/04/21 04:04:30;;;;;;;12.80;11.80;;;7.50;99.90;;;;;;6003946;23;20671;-81
2022/04/21 04:12:31;;;;;;;13.00;11.90;;;7.40;99.90;;;;;;6003753;23;20588;-81
2022/04/21 04:14:57;;;;;;;12.70;11.70;;;7.40;99.90;;;;;;6005360;23;20538;-82
2022/04/21 04:17:25;;;;;;;13.75;12.40;;;7.40;99.90;;;;;;6002965;23;20294;-81
2022/04/21 04:19:53;;;;;;;14.18;13.07;;;7.40;99.90;;;;;;6004144;23;20222;-81
2022/04/21 04:22:20;;;;;;;12.90;11.90;;;7.40;99.90;;;;;;5999838;23;20607;-82
2022/04/21 04:24:50;;;;;;;13.15;12.07;;;7.40;99.90;;;;;;6005169;23;20214;-82
2022/04/21 04:27:17;;;;;;;12.57;11.57;;;7.40;99.90;;;;;;6004235;23;20283;-82
2022/04/21 04:29:44;;;;;;;12.55;11.55;;;7.30;99.90;;;;;;6004515;23;20225;-81
2022/04/21 04:32:14;;;;;;;13.38;12.35;;;7.30;99.90;;;;;;6004659;23;20206;-81
2022/04/21 04:34:41;;;;;;;13.32;12.23;;;7.30;99.90;;;;;;6005431;23;20232;-81
2022/04/21 04:37:09;;;;;;;12.88;11.77;;;7.30;99.90;;;;;;5992885;23;20764;-82
2022/04/21 04:39:36;;;;;;;12.23;11.27;;;7.30;99.90;;;;;;6004142;23;20693;-82
2022/04/21 04:42:20;;;;;;;12.93;11.68;;;7.30;99.90;;;;;;6000011;23;20241;-82
2022/04/21 04:44:49;;;;;;;12.98;11.88;;;7.30;99.90;;;;;;6005568;23;20193;-81
2022/04/21 04:47:15;;;;;;;14.00;12.90;;;7.30;99.90;;;;;;6003693;23;20218;-81
2022/04/21 04:49:43;;;;;;;14.60;13.45;;;7.30;99.90;;;;;;5995106;23;20219;-82
2022/04/21 04:52:11;;;;;;;14.15;12.95;;;7.30;99.90;;;;;;6001816;23;20201;-86
2022/04/21 04:54:38;;;;;;;14.20;13.00;;;7.30;99.90;;;;;;6003603;23;20203;-87
2022/04/21 04:57:05;;;;;;;13.52;12.43;;;7.30;99.90;;;;;;6001579;23;20249;-84
2022/04/21 04:59:33;;;;;;;13.95;12.75;;;7.40;99.90;;;;;;6006247;23;20217;-85
2022/04/21 05:02:01;;;;;;;13.70;12.60;;;7.40;99.90;;;;;;6029641;23;20201;-84
2022/04/21 05:04:28;;;;;;;13.25;12.10;;;7.40;99.90;;;;;;6032875;23;20198;-83
2022/04/21 05:06:57;;;;;;;15.15;13.95;;;7.50;99.90;;;;;;6028397;23;20502;-83
2022/04/21 05:09:26;;;;;;;14.35;13.15;;;7.60;99.90;;;;;;6024768;23;20214;-82
2022/04/21 05:11:55;;;;;;;14.00;12.70;;;7.60;99.90;;;;;;6001415;23;20329;-83
2022/04/21 05:14:24;;;;;;;14.35;13.23;;;7.70;99.90;;;;;;6008743;23;20587;-81
2022/04/21 05:16:51;;;;;;;14.45;13.25;;;7.70;99.90;;;;;;6002195;23;20199;-82
2022/04/21 05:19:20;;;;;;;14.48;13.18;;;7.80;99.90;;;;;;5997739;23;20308;-81
2022/04/21 05:21:48;;;;;;;13.75;12.65;;;7.90;99.90;;;;;;5989691;23;20206;-83
2022/04/21 05:24:16;;;;;;;15.05;13.85;;;8.00;99.90;;;;;;5980472;23;21017;-82
2022/04/21 05:26:46;;;;;;;13.50;12.40;;;8.00;99.90;;;;;;5989319;23;20297;-83
2022/04/21 05:32:05;;;;;;;14.10;12.90;;;8.20;99.90;;;;;;5916657;23;20531;-84
2022/04/21 05:34:33;;;;;;;12.55;11.45;;;8.20;99.90;;;;;;5997532;23;20186;-83
2022/04/21 05:37:01;;;;;;;12.98;11.90;;;8.20;99.90;;;;;;5998125;23;20261;-82
2022/04/21 05:39:29;;;;;;;12.27;11.18;;;8.20;99.90;;;;;;5996742;23;20210;-82
2022/04/21 05:41:59;;;;;;;9.80;9.00;;;8.30;99.90;;;;;;5992265;23;20195;-80
2022/04/21 05:44:27;;;;;;;13.00;12.00;;;8.50;99.90;;;;;;5993295;23;20841;-81
2022/04/21 05:46:55;;;;;;;12.32;11.32;;;8.80;99.90;;;;;;5988094;23;20385;-82
2022/04/21 05:49:23;;;;;;;12.80;11.80;;;8.90;99.90;;;;;;5994680;23;20210;-83
2022/04/21 05:51:51;;;;;;;13.43;12.27;;;8.90;99.90;;;;;;5991389;23;20186;-82
2022/04/21 05:54:18;;;;;;;14.15;12.93;;;8.90;99.90;;;;;;5993259;23;20186;-84
2022/04/21 05:56:46;;;;;;;13.18;12.07;;;9.00;99.90;;;;;;5995129;23;20192;-82
2022/04/21 05:59:14;;;;;;;13.50;12.43;;;8.90;99.90;;;;;;5993715;23;20214;-78
2022/04/21 06:01:41;;;;;;;13.07;11.93;;;8.90;99.90;;;;;;5989304;23;20203;-80
2022/04/21 06:04:07;;;;;;;12.13;11.13;;;9.00;99.90;;;;;;5996481;23;20187;-82
2022/04/21 06:06:35;;;;;;;12.90;11.73;;;9.10;99.90;;;;;;5997476;23;20277;-80
2022/04/21 06:09:02;;;;;;;12.60;11.55;;;9.20;99.90;;;;;;5999375;23;20624;-80
2022/04/21 06:11:28;;;;;;;12.75;11.60;;;9.30;99.90;;;;;;5994422;23;20203;-80
2022/04/21 06:13:55;;;;;;;13.55;12.25;;;9.40;99.90;;;;;;5999716;23;20190;-82
2022/04/21 06:16:24;;;;;;;12.98;11.98;;;9.50;99.90;;;;;;5994124;23;20196;-80
2022/04/21 06:18:51;;;;;;;13.57;12.40;;;9.70;99.90;;;;;;5998543;23;20263;-80
2022/04/21 06:21:18;;;;;;;13.25;12.25;;;9.80;99.90;;;;;;5995499;23;20193;-79
2022/04/21 06:23:45;;;;;;;13.38;12.27;;;9.80;99.90;;;;;;5997855;23;20273;-80
2022/04/21 06:26:12;;;;;;;12.60;11.60;;;9.90;99.90;;;;;;5997029;23;20220;-80
2022/04/21 06:28:41;;;;;;;12.70;11.60;;;10.00;99.90;;;;;;5999259;23;20248;-81
2022/04/21 06:31:08;;;;;;;13.70;12.60;;;10.10;99.90;;;;;;5993952;23;20785;-84
2022/04/21 06:33:37;;;;;;;12.55;11.63;;;10.10;99.90;;;;;;5983664;23;20649;-81
2022/04/21 06:36:06;;;;;;;12.48;11.40;;;10.30;99.90;;;;;;5983832;23;20192;-82
2022/04/21 06:38:33;;;;;;;12.38;11.43;;;10.40;99.90;;;;;;5977639;23;20222;-81
2022/04/21 06:41:01;;;;;;;12.63;11.43;;;10.50;99.90;;;;;;5992518;23;20541;-81
2022/04/21 06:48:58;;;;;;;13.27;12.25;;;11.00;99.90;;;;;;5992518;23;20216;-81
2022/04/21 06:51:27;;;;;;;12.35;11.43;;;11.20;99.90;;;;;;5982715;23;20262;-81
2022/04/21 06:53:54;;;;;;;13.45;12.20;;;11.50;99.90;;;;;;5992356;23;20627;-81
2022/04/21 06:56:21;;;;;;;12.07;11.18;;;12.10;99.90;;;;;;5984154;23;20261;-81
2022/04/21 06:58:48;;;;;;;12.40;11.40;;;12.80;99.90;;;;;;5989715;23;20704;-80
2022/04/21 07:01:15;;;;;;;11.87;10.97;;;13.60;99.70;;;;;;5994721;23;21012;-81
2022/04/21 07:03:42;;;;;;;12.10;11.20;;;14.40;97.70;;;;;;5979677;23;21033;-81
2022/04/21 07:06:11;;;;;;;11.27;10.43;;;15.10;95.70;;;;;;5992335;23;20538;-82
2022/04/21 07:08:38;;;;;;;10.80;9.93;;;15.90;94.30;;;;;;5990710;23;20496;-82
2022/04/21 07:11:05;;;;;;;11.70;10.87;;;16.70;92.40;;;;;;6000849;23;20484;-81
2022/04/21 07:13:33;;;;;;;11.27;10.47;;;17.30;90.20;;;;;;5992767;23;20433;-82
2022/04/21 07:15:59;;;;;;;11.90;11.10;;;17.80;87.40;;;;;;5994641;23;20517;-81
2022/04/21 07:18:27;;;;;;;11.93;10.87;;;17.90;85.20;;;;;;5989281;23;20465;-82
2022/04/21 07:20:53;;;;;;;12.17;11.27;;;18.10;83.40;;;;;;5994404;23;20439;-83
2022/04/21 07:23:22;;;;;;;12.53;11.53;;;18.30;80.60;;;;;;5997817;23;20797;-82
2022/04/21 07:25:49;;;;;;;12.40;11.40;;;18.50;79.10;;;;;;5996406;23;20433;-82
2022/04/21 07:28:16;;;;;;;11.73;10.93;;;17.60;79.20;;;;;;5981855;23;20464;-83
2022/04/21 07:30:43;;;;;;;12.77;11.67;;;17.00;81.40;;;;;;5992087;23;20452;-82
2022/04/21 07:33:09;;;;;;;12.90;11.90;;;17.00;83.10;;;;;;5979587;23;20483;-82
2022/04/21 07:35:37;;;;;;;12.90;11.77;;;17.50;82.50;;;;;;5998075;23;20439;-82
2022/04/21 07:38:05;;;;;;;11.43;10.63;;;17.50;79.70;;;;;;5989575;23;20465;-82
2022/04/21 07:40:34;;;;;;;12.70;11.70;;;17.70;80.10;;;;;;5979183;23;20460;-81
2022/04/21 07:43:03;;;;;;;11.73;10.90;;;17.70;78.30;;;;;;5982369;23;20445;-81
2022/04/21 07:45:32;;;;;;;12.07;11.17;;;17.40;80.10;;;;;;5989868;23;20516;-81
2022/04/21 07:47:59;;;;;;;11.40;10.53;;;17.80;80.00;;;;;;5993685;23;20492;-82
2022/04/21 07:50:26;;;;;;;12.30;11.30;;;17.90;79.50;;;;;;5989218;23;20521;-81
2022/04/21 07:55:39;;;;;;;11.77;10.80;;;18.40;77.70;;;;;;5983088;23;20453;-83
2022/04/21 07:58:06;;;;;;;11.87;10.97;;;18.80;77.00;;;;;;5997597;23;20536;-82
2022/04/21 08:00:36;;;;;;;11.53;10.73;;;19.20;75.20;;;;;;5988107;23;21116;-82
2022/04/21 08:03:03;;;;;;;11.00;10.23;;;19.80;73.60;;;;;;5986692;23;20499;-82
2022/04/21 08:05:31;;;;;;;11.57;10.60;;;20.20;71.60;;;;;;5996951;23;20442;-82
2022/04/21 08:07:58;;;;;;;11.97;10.90;;;20.40;70.50;;;;;;5994306;23;20469;-85
2022/04/21 08:10:27;;;;;;;11.80;10.93;;;20.30;68.70;;;;;;5998176;23;20448;-81
2022/04/21 08:12:58;;;;;;;11.63;10.83;;;20.10;68.50;;;;;;5990268;23;20488;-83
2022/04/21 08:15:27;;;;;;;12.40;11.50;;;19.90;70.10;;;;;;5991056;23;20442;-84
2022/04/21 08:17:57;;;;;;;11.57;10.70;;;19.30;68.80;;;;;;5983757;23;20548;-82
2022/04/21 08:20:26;;;;;;;11.83;10.93;;;19.30;70.10;;;;;;5991386;23;20511;-81
2022/04/21 08:22:53;;;;;;;10.60;9.87;;;19.80;70.00;;;;;;5991021;23;21194;-83
2022/04/21 08:33:37;;;;;;;9.33;8.63;;;22.10;61.30;;;;;;5996955;23;20441;-82
2022/04/21 08:36:05;;;;;;;9.53;8.83;;;22.00;61.40;;;;;;6002769;23;20941;-81
2022/04/21 08:38:33;;;;;;;9.60;9.00;;;22.20;60.20;;;;;;5990132;23;21008;-82
2022/04/21 08:41:04;;;;;;;9.90;9.10;;;22.40;59.10;;;;;;5992895;23;20435;-82
2022/04/21 08:43:35;;;;;;;9.10;8.40;;;22.10;58.90;;;;;;5999563;23;20433;-82
2022/04/21 08:46:04;;;;;;;9.27;8.57;;;22.30;58.00;;;;;;6001479;23;20758;-82
2022/04/21 08:48:33;;;;;;;9.00;8.30;;;22.10;57.70;;;;;;5998598;23;20493;-83
2022/04/21 08:51:01;;;;;;;8.40;7.80;;;22.10;58.00;;;;;;5994809;23;20450;-82
2022/04/21 08:53:30;;;;;;;9.07;8.47;;;22.30;56.50;;;;;;5992584;23;20433;-84
2022/04/21 08:55:58;;;;;;;9.53;8.93;;;22.50;56.60;;;;;;6002202;23;20438;-83
2022/04/21 08:58:25;;;;;;;9.07;8.47;;;21.10;57.00;;;;;;6003473;23;20992;-83
2022/04/21 09:00:56;;;;;;;8.97;8.37;;;20.80;58.70;;;;;;5997734;23;20447;-82
2022/04/21 09:03:23;;;;;;;8.83;8.13;;;20.60;58.40;;;;;;5997443;23;20528;-82
2022/04/21 09:05:50;;;;;;;8.40;7.80;;;20.10;58.20;;;;;;5989475;23;20910;-83
2022/04/21 09:08:22;;;;;;;8.97;8.27;;;20.40;58.90;;;;;;5988277;23;20473;-84
2022/04/21 09:11:03;;;;;;;7.43;6.93;;;20.80;58.60;;;;;;5999893;23;20456;-84
2022/04/21 09:13:35;;;;;;;8.13;7.60;;;21.30;58.50;;;;;;5997613;23;20461;-85
2022/04/21 09:16:05;;;;;;;8.10;7.50;;;22.10;57.40;;;;;;5996712;23;20637;-85
2022/04/21 09:18:43;;;;;;;8.00;7.40;;;22.80;56.80;;;;;;6000863;23;21481;-85
2022/04/21 09:21:14;;;;;;;7.80;7.20;;;23.50;55.50;;;;;;6000694;23;20487;-85
2022/04/21 09:23:42;;;;;;;6.57;5.97;;;23.80;54.50;;;;;;5999194;23;20445;-85
2022/04/21 09:26:11;;;;;;;6.33;5.80;;;24.30;53.50;;;;;;5999626;23;20472;-85
2022/04/21 09:28:39;;;;;;;6.27;5.87;;;24.90;52.80;;;;;;6002967;23;20488;-85
2022/04/21 09:31:09;;;;;;;6.63;6.17;;;25.00;52.20;;;;;;6003179;23;20480;-86
2022/04/21 09:33:37;;;;;;;7.63;6.90;;;25.00;51.50;;;;;;6002778;23;20476;-83
2022/04/21 09:36:07;;;;;;;6.30;5.90;;;24.30;51.10;;;;;;6002540;23;20510;-86
2022/04/21 09:38:35;;;;;;;5.63;5.20;;;23.90;52.00;;;;;;6001007;23;20508;-82
2022/04/21 09:41:09;;;;;;;5.47;5.07;;;23.80;54.00;;;;;;5988416;23;20438;-77
2022/04/21 09:43:38;;;;;;;5.90;5.50;;;24.20;52.70;;;;;;5989733;23;20483;-77
2022/04/21 09:46:16;;;;;;;6.10;5.70;;;24.70;51.40;;;;;;5998668;23;20458;-85
2022/04/21 09:48:44;;;;;;;5.97;5.57;;;24.70;51.30;;;;;;6000088;23;20526;-84
2022/04/21 09:51:14;;;;;;;5.90;5.50;;;23.80;51.60;;;;;;5996600;23;20512;-84
2022/04/21 09:53:54;;;;;;;5.67;5.27;;;24.20;52.40;;;;;;5996445;23;21040;-84
2022/04/21 09:56:31;;;;;;;5.43;5.13;;;24.80;51.80;;;;;;5989811;23;20449;-83
2022/04/21 09:58:58;;;;;;;5.40;5.10;;;24.80;50.40;;;;;;5989211;23;20477;-83
2022/04/21 10:01:28;;;;;;;5.00;4.70;;;24.20;50.40;;;;;;5999270;23;20480;-84
2022/04/21 10:03:56;;;;;;;5.50;5.10;;;24.10;51.70;;;;;;5996504;23;20445;-84
2022/04/21 10:06:23;;;;;;;5.17;4.77;;;24.20;51.10;;;;;;5999131;23;20462;-83
2022/04/21 10:08:51;;;;;;;5.13;4.80;;;24.60;50.50;;;;;;5997379;23;20624;-82
2022/04/21 10:11:23;;;;;;;5.43;5.03;;;23.80;50.80;;;;;;5999567;23;20534;-83
2022/04/21 10:13:54;;;;;;;4.80;4.50;;;23.10;52.10;;;;;;5997630;23;20433;-83
2022/04/21 10:16:21;;;;;;;5.87;5.40;;;22.70;52.70;;;;;;5994518;23;20474;-84
2022/04/21 10:18:51;;;;;;;4.73;4.40;;;22.30;52.90;;;;;;5992692;23;20523;-81
2022/04/21 10:21:25;;;;;;;4.90;4.50;;;22.70;53.70;;;;;;5990700;23;20457;-77
2022/04/21 10:23:53;;;;;;;4.90;4.50;;;23.30;53.10;;;;;;6001450;23;20448;-77
2022/04/21 10:26:35;;;;;;;4.30;4.00;;;24.10;52.60;;;;;;5996789;23;20544;-73
2022/04/21 10:29:10;;;;;;;4.50;4.20;;;24.70;51.00;;;;;;5997103;23;20545;-78
2022/04/21 10:31:46;;;;;;;4.13;3.83;;;25.70;50.00;;;;;;6001492;23;20442;-84
2022/04/21 10:34:31;;;;;;;4.50;4.10;;;26.40;48.20;;;;;;5990900;23;20564;-83
2022/04/21 10:37:10;;;;;;;3.73;3.43;;;25.40;49.10;;;;;;5995167;23;20507;-84
2022/04/21 10:39:37;;;;;;;4.50;4.10;;;25.40;49.20;;;;;;5996265;23;20487;-84
2022/04/21 10:42:22;;;;;;;4.07;3.77;;;25.50;49.20;;;;;;5992759;23;20439;-82
2022/04/21 10:44:50;;;;;;;3.90;3.60;;;25.80;49.40;;;;;;6003651;23;20523;-84
2022/04/21 10:47:37;;;;;;;4.73;4.33;;;25.80;49.20;;;;;;5994507;23;20472;-84
2022/04/21 10:50:14;;;;;;;4.70;4.30;;;25.50;48.70;;;;;;5996453;23;20441;-84
2022/04/21 10:58:50;;;;;;;2.97;2.77;;;25.20;48.90;;;;;;5995649;23;20552;-84
2022/04/21 11:01:19;;;;;;;3.10;2.90;;;25.60;48.40;;;;;;6002239;23;20479;-84
2022/04/21 11:04:04;;;;;;;3.00;2.80;;;25.60;48.40;;;;;;6001271;23;21018;-84
2022/04/21 11:06:44;;;;;;;3.27;3.07;;;25.60;48.60;;;;;;6002483;23;20453;-83
2022/04/21 11:09:36;;;;;;;2.90;2.70;;;25.40;47.80;;;;;;6002978;23;20491;-84
2022/04/21 11:12:05;;;;;;;3.13;2.90;;;24.30;48.60;;;;;;5995919;23;20587;-85
2022/04/21 11:14:34;;;;;;;3.17;2.87;;;23.70;49.90;;;;;;5992629;23;20452;-85
2022/04/21 11:17:02;;;;;;;2.97;2.77;;;23.40;50.10;;;;;;5992009;23;20492;-84
2022/04/21 11:19:53;;;;;;;3.33;3.00;;;22.90;50.70;;;;;;5993434;23;20488;-86
2022/04/21 11:22:40;;;;;;;3.20;3.00;;;23.20;51.30;;;;;;5978091;23;20479;-85
2022/04/21 11:25:08;;;;;;;2.33;2.23;;;23.50;51.00;;;;;;5996779;23;20449;-84
2022/04/21 11:27:42;;;;;;;3.03;2.83;;;23.70;50.10;;;;;;6002274;23;20469;-85
2022/04/21 11:30:12;;;;;;;2.30;2.03;;;23.90;50.20;;;;;;5998331;23;20441;-82
2022/04/21 11:32:39;;;;;;;2.00;1.90;;;23.90;49.90;;;;;;6004034;23;20445;-85
2022/04/21 11:35:09;;;;;;;2.37;2.10;;;24.10;50.40;;;;;;5991230;23;20473;-85
2022/04/21 11:37:55;;;;;;;2.40;2.30;;;24.50;50.40;;;;;;5997020;23;20465;-85
2022/04/21 11:40:25;;;;;;;2.97;2.77;;;25.10;48.70;;;;;;5990907;23;20438;-84
2022/04/21 11:42:53;;;;;;;2.60;2.20;;;24.40;47.80;;;;;;6001297;23;20466;-85
2022/04/21 11:45:24;;;;;;;2.57;2.37;;;23.90;49.60;;;;;;5994542;23;20437;-84
2022/04/21 11:47:52;;;;;;;2.47;2.27;;;24.00;49.30;;;;;;5998429;23;20549;-84
2022/04/21 11:50:24;;;;;;;2.80;2.60;;;23.30;49.20;;;;;;5991783;23;20448;-85
2022/04/21 11:52:54;;;;;;;2.73;2.53;;;22.80;50.50;;;;;;5995851;23;20441;-85
2022/04/21 11:55:24;;;;;;;2.70;2.50;;;23.30;50.90;;;;;;5987008;23;20453;-85
2022/04/21 11:57:52;;;;;;;2.60;2.40;;;23.90;50.00;;;;;;5999675;23;20464;-85
2022/04/21 12:08:31;;;;;;;2.87;2.73;;;23.90;50.80;;;;;;5997424;23;20460;-84
2022/04/21 12:11:00;;;;;;;2.83;2.63;;;24.50;50.10;;;;;;5996855;23;20462;-85
2022/04/21 12:13:27;;;;;;;3.23;3.03;;;24.80;49.60;;;;;;5993663;23;20606;-86
2022/04/21 12:15:54;;;;;;;2.60;2.40;;;24.50;49.30;;;;;;5979316;23;20504;-85
2022/04/21 12:18:21;;;;;;;2.90;2.70;;;24.00;50.60;;;;;;5995327;23;20433;-78
2022/04/21 12:20:54;;;;;;;2.90;2.63;;;24.10;49.90;;;;;;5993303;23;20885;-82
2022/04/21 12:23:27;;;;;;;2.30;2.20;;;24.10;50.20;;;;;;5992132;23;20780;-84
2022/04/21 12:25:59;;;;;;;2.90;2.70;;;24.50;50.10;;;;;;5993494;23;20991;-83
2022/04/21 12:28:26;;;;;;;2.87;2.67;;;24.50;49.60;;;;;;5982823;23;20524;-81
2022/04/21 12:30:53;;;;;;;2.80;2.37;;;24.10;49.20;;;;;;5996270;23;20932;-81
2022/04/21 12:33:20;;;;;;;2.37;2.27;;;24.00;50.60;;;;;;5993260;23;20448;-86
2022/04/21 12:35:49;;;;;;;2.43;2.23;;;24.30;50.20;;;;;;5990958;23;20596;-81
2022/04/21 12:41:04;;;;;;;2.33;2.13;;;24.80;49.30;;;;;;5996496;23;20488;-81
2022/04/21 12:43:32;;;;;;;2.77;2.57;;;24.80;49.50;;;;;;5997737;23;20457;-80
2022/04/21 12:46:00;;;;;;;3.40;3.10;;;23.50;50.40;;;;;;6000602;23;20532;-81
2022/04/21 12:48:28;;;;;;;3.30;3.10;;;23.30;50.70;;;;;;5996623;23;20536;-81
2022/04/21 12:50:57;;;;;;;3.07;2.87;;;23.20;51.00;;;;;;5998353;23;20445;-79
2022/04/21 12:53:29;;;;;;;3.20;2.80;;;23.40;51.20;;;;;;5982355;23;20500;-79
2022/04/21 12:55:57;;;;;;;2.70;2.50;;;23.80;51.20;;;;;;5990962;23;20449;-81
2022/04/21 12:58:32;;;;;;;3.07;2.87;;;24.30;51.40;;;;;;5995279;23;20458;-82
2022/04/21 13:01:01;;;;;;;2.97;2.77;;;24.50;50.20;;;;;;5996049;23;20503;-82
2022/04/21 13:03:28;;;;;;;5.60;2.90;;;24.40;50.10;;;;;;5991950;23;20442;-81
2022/04/21 13:05:57;;;;;;;3.30;3.10;;;24.40;50.90;;;;;;5992901;23;20500;-81
2022/04/21 13:08:25;;;;;;;3.40;3.20;;;24.20;50.40;;;;;;5998458;23;20466;-81
2022/04/21 13:10:54;;;;;;;3.77;3.47;;;23.60;50.20;;;;;;5993512;23;20484;-82
2022/04/21 13:13:21;;;;;;;3.50;3.20;;;23.00;51.10;;;;;;5993772;23;20528;-81
2022/04/21 13:15:50;;;;;;;3.60;3.20;;;22.70;52.10;;;;;;5996755;23;20475;-81
2022/04/21 13:18:18;;;;;;;3.30;3.10;;;22.50;52.00;;;;;;5987062;23;20448;-81
2022/04/21 13:23:30;;;;;;;3.30;3.10;;;22.40;52.80;;;;;;5994571;23;20447;-80
2022/04/21 13:25:59;;;;;;;3.77;3.53;;;22.40;52.60;;;;;;5998194;23;20475;-82
2022/04/21 13:28:25;;;;;;;3.60;3.23;;;21.80;52.50;;;;;;5998604;23;20478;-84
2022/04/21 13:33:35;;;;;;;3.13;2.93;;;21.00;54.60;;;;;;5993234;23;20438;-82
2022/04/21 13:36:03;;;;;;;3.20;3.00;;;21.20;54.20;;;;;;5991067;23;20507;-82
2022/04/21 13:38:30;;;;;;;2.87;2.63;;;21.70;53.40;;;;;;6001597;23;20447;-82
2022/04/21 13:40:57;;;;;;;2.83;2.63;;;21.90;53.20;;;;;;5995541;23;20445;-82
2022/04/21 13:43:26;;;;;;;3.57;3.37;;;22.00;52.30;;;;;;5994861;23;20449;-83
2022/04/21 13:45:56;;;;;;;4.00;3.70;;;21.80;53.10;;;;;;5997695;23;20492;-83
2022/04/21 13:48:24;;;;;;;7.50;4.00;;;22.50;53.60;;;;;;5999695;23;20436;-83
2022/04/21 13:50:51;;;;;;;5.07;3.13;;;23.00;52.70;;;;;;5998453;23;20953;-82